createdAt,value
2019-02-18T00:01:13.961Z,101138.52
2019-02-18T00:03:44.025Z,101137.02
2019-02-18T00:06:13.727Z,101142.09
2019-02-18T00:08:43.539Z,101140.08
2019-02-18T00:11:12.848Z,101140.17
2019-02-18T00:13:42.496Z,101135.47
2019-02-18T00:16:11.937Z,101135.23
2019-02-18T00:18:41.266Z,101130.59
2019-02-18T00:21:10.489Z,101132.03
2019-02-18T00:23:39.704Z,101134.71
2019-02-18T00:26:09.872Z,101141.28
2019-02-18T00:28:40.408Z,101140.19
2019-02-18T00:31:09.611Z,101136.83
2019-02-18T00:33:38.892Z,101134.45
2019-02-18T00:36:08.941Z,101131.38
2019-02-18T00:38:38.153Z,101126.59
2019-02-18T00:41:07.412Z,101132.31
2019-02-18T00:43:36.641Z,101136.33
2019-02-18T00:46:09.076Z,101137.63
2019-02-18T00:48:38.675Z,101137.78
2019-02-18T00:51:08.771Z,101137.34
2019-02-18T00:53:37.987Z,101145.25
2019-02-18T00:56:07.343Z,101140.55
2019-02-18T00:58:36.558Z,101137.92
2019-02-18T01:01:05.808Z,101142.53
2019-02-18T01:03:35.345Z,101139.34
2019-02-18T01:06:08.127Z,101136.20
2019-02-18T01:08:37.327Z,101130.30
2019-02-18T01:11:06.579Z,101140.12
2019-02-18T01:13:35.842Z,101139.48
2019-02-18T01:16:05.945Z,101137.78
2019-02-18T01:18:35.478Z,101136.56
2019-02-18T01:21:04.721Z,101138.44
2019-02-18T01:23:33.950Z,101131.89
2019-02-18T01:26:04.871Z,101135.88
2019-02-18T01:28:35.384Z,101128.16
2019-02-18T01:31:04.613Z,101131.34
2019-02-18T01:33:33.870Z,101127.72
2019-02-18T01:36:04.407Z,101133.78
2019-02-18T01:38:33.640Z,101136.23
2019-02-18T01:41:02.895Z,101132.48
2019-02-18T01:43:32.176Z,101131.17
2019-02-18T01:46:02.746Z,101132.42
2019-02-18T01:48:32.217Z,101130.30
2019-02-18T01:51:01.464Z,101122.09
2019-02-18T01:53:30.795Z,101120.84
2019-02-18T01:56:00.054Z,101119.48
2019-02-18T01:58:29.286Z,101116.48
2019-02-18T02:00:58.509Z,101107.09
2019-02-18T02:03:28.076Z,101112.41
2019-02-18T02:05:57.308Z,101105.23
2019-02-18T02:08:26.542Z,101102.39
2019-02-18T02:10:56.114Z,101100.41
2019-02-18T02:13:29.899Z,101109.50
2019-02-18T02:15:59.803Z,101106.30
2019-02-18T02:18:29.008Z,101104.82
2019-02-18T02:20:58.523Z,101103.76
2019-02-18T02:23:27.788Z,101112.59
2019-02-18T02:25:56.979Z,101111.29
2019-02-18T02:28:26.219Z,101109.38
2019-02-18T02:30:55.467Z,101109.88
2019-02-18T02:33:24.705Z,101102.39
2019-02-18T02:35:54.185Z,101097.16
2019-02-18T02:38:23.496Z,101098.22
2019-02-18T02:40:52.733Z,101099.97
2019-02-18T02:43:21.959Z,101100.16
2019-02-18T02:45:52.513Z,101101.41
2019-02-18T02:48:21.714Z,101105.25
2019-02-18T02:50:50.937Z,101101.58
2019-02-18T02:53:20.211Z,101106.76
2019-02-18T02:55:50.604Z,101104.94
2019-02-18T02:58:19.824Z,101103.58
2019-02-18T03:00:49.086Z,101102.15
2019-02-18T03:03:18.335Z,101100.14
2019-02-18T03:05:48.038Z,101100.95
2019-02-18T03:08:20.575Z,101098.60
2019-02-18T03:10:48.275Z,101094.71
2019-02-18T03:13:17.463Z,101104.80
2019-02-18T03:15:46.721Z,101092.17
2019-02-18T03:18:15.956Z,101094.70
2019-02-18T03:20:45.451Z,101095.06
2019-02-18T03:23:14.820Z,101093.10
2019-02-18T03:25:45.776Z,101091.22
2019-02-18T03:28:35.327Z,101092.52
2019-02-18T03:31:11.554Z,101089.89
2019-02-18T03:33:47.726Z,101092.88
2019-02-18T03:36:17.063Z,101099.03
2019-02-18T03:38:46.595Z,101104.42
2019-02-18T03:41:15.835Z,101101.22
2019-02-18T03:43:45.051Z,101101.06
2019-02-18T03:46:14.291Z,101096.59
2019-02-18T03:48:43.557Z,101108.07
2019-02-18T03:51:12.785Z,101104.58
2019-02-18T03:53:42.326Z,101109.31
2019-02-18T03:56:11.956Z,101101.92
2019-02-18T03:58:41.292Z,101108.45
2019-02-18T04:01:10.829Z,101111.16
2019-02-18T04:03:40.208Z,101109.48
2019-02-18T04:06:09.997Z,101111.72
2019-02-18T04:08:42.872Z,101115.58
2019-02-18T04:11:10.967Z,101115.19
2019-02-18T04:13:40.240Z,101116.94
2019-02-18T04:16:10.037Z,101112.25
2019-02-18T04:18:39.297Z,101113.67
2019-02-18T04:21:08.651Z,101117.59
2019-02-18T04:23:38.163Z,101113.35
2019-02-18T04:26:08.104Z,101116.71
2019-02-18T04:28:37.420Z,101112.84
2019-02-18T04:31:06.753Z,101113.71
2019-02-18T04:33:36.326Z,101099.31
2019-02-18T04:36:08.601Z,101107.58
2019-02-18T04:38:37.831Z,101108.39
2019-02-18T04:41:07.155Z,101105.24
2019-02-18T04:43:36.722Z,101099.27
2019-02-18T04:46:06.053Z,101104.42
2019-02-18T04:48:35.329Z,101096.27
2019-02-18T04:51:04.709Z,101099.25
2019-02-18T04:53:33.942Z,101099.20
2019-02-18T04:56:04.407Z,101103.94
2019-02-18T04:58:33.638Z,101110.02
2019-02-18T05:01:03.154Z,101103.12
2019-02-18T05:03:32.429Z,101106.92
2019-02-18T05:06:02.710Z,101103.41
2019-02-18T05:08:31.980Z,101098.56
2019-02-18T05:11:01.229Z,101099.53
2019-02-18T05:13:30.535Z,101105.63
2019-02-18T05:15:59.726Z,101105.68
2019-02-18T05:18:29.322Z,101106.72
2019-02-18T05:20:58.848Z,101108.45
2019-02-18T05:23:28.080Z,101102.79
2019-02-18T05:25:57.600Z,101103.16
2019-02-18T05:28:26.832Z,101096.64
2019-02-18T05:30:56.172Z,101092.35
2019-02-18T05:33:25.367Z,101098.32
2019-02-18T05:35:55.969Z,101096.15
2019-02-18T05:38:25.262Z,101087.93
2019-02-18T05:40:54.538Z,101083.59
2019-02-18T05:43:24.056Z,101085.87
2019-02-18T05:45:53.264Z,101089.78
2019-02-18T05:48:22.513Z,101090.80
2019-02-18T05:50:52.052Z,101090.80
2019-02-18T05:53:21.273Z,101090.47
2019-02-18T05:55:50.558Z,101087.58
2019-02-18T05:58:19.767Z,101087.20
2019-02-18T06:00:49.043Z,101079.42
2019-02-18T06:03:18.624Z,101084.00
2019-02-18T06:05:47.845Z,101081.68
2019-02-18T06:08:22.175Z,101088.14
2019-02-18T06:10:52.073Z,101085.92
2019-02-18T06:13:22.257Z,101090.06
2019-02-18T06:15:52.315Z,101088.27
2019-02-18T06:18:22.778Z,101087.79
2019-02-18T06:20:52.288Z,101086.95
2019-02-18T06:23:21.831Z,101086.00
2019-02-18T06:25:51.090Z,101084.79
2019-02-18T06:28:20.354Z,101092.44
2019-02-18T06:30:49.888Z,101097.17
2019-02-18T06:33:19.214Z,101092.83
2019-02-18T06:35:48.805Z,101091.19
2019-02-18T06:38:18.428Z,101094.71
2019-02-18T06:40:47.683Z,101093.02
2019-02-18T06:43:16.897Z,101089.98
2019-02-18T06:45:57.001Z,101093.02
2019-02-18T06:48:31.841Z,101090.91
2019-02-18T06:51:01.120Z,101091.00
2019-02-18T06:53:31.672Z,101088.80
2019-02-18T06:56:00.909Z,101092.70
2019-02-18T06:58:51.168Z,101095.31
2019-02-18T07:01:39.633Z,101098.05
2019-02-18T07:04:30.692Z,101101.10
2019-02-18T07:07:13.817Z,101099.46
2019-02-18T07:10:00.751Z,101101.97
2019-02-18T07:12:32.937Z,101100.00
2019-02-18T07:15:02.256Z,101104.77
2019-02-18T07:17:32.259Z,101110.28
2019-02-18T07:20:02.969Z,101111.09
2019-02-18T07:22:32.225Z,101106.66
2019-02-18T07:25:01.531Z,101110.46
2019-02-18T07:27:30.797Z,101112.14
2019-02-18T07:30:00.378Z,101115.14
2019-02-18T07:32:30.164Z,101113.41
2019-02-18T07:34:59.391Z,101105.39
2019-02-18T07:37:28.810Z,101114.28
2019-02-18T07:40:01.540Z,101116.39
2019-02-18T07:42:29.673Z,101113.55
2019-02-18T07:44:59.309Z,101118.11
2019-02-18T07:47:29.815Z,101120.03
2019-02-18T07:49:59.335Z,101116.95
2019-02-18T07:52:28.762Z,101116.27
2019-02-18T07:54:58.327Z,101113.03
2019-02-18T07:57:27.621Z,101114.08
2019-02-18T07:59:56.942Z,101108.17
2019-02-18T08:02:27.405Z,101111.57
2019-02-18T08:04:56.640Z,101095.59
2019-02-18T08:07:26.103Z,101091.22
2019-02-18T08:09:55.675Z,101084.97
2019-02-18T08:12:24.928Z,101090.13
2019-02-18T08:14:54.159Z,101079.52
2019-02-18T08:17:23.832Z,101078.15
2019-02-18T08:19:53.114Z,101076.11
2019-02-18T08:22:22.415Z,101077.11
2019-02-18T08:24:52.117Z,101068.16
2019-02-18T08:27:21.596Z,101064.34
2019-02-18T08:29:50.937Z,101066.31
2019-02-18T08:32:21.237Z,101074.19
2019-02-18T08:34:50.498Z,101067.95
2019-02-18T08:37:19.875Z,101067.63
2019-02-18T08:39:49.444Z,101065.94
2019-02-18T08:42:18.713Z,101073.11
2019-02-18T08:44:47.980Z,101065.22
2019-02-18T08:47:17.624Z,101063.22
2019-02-18T08:49:47.353Z,101065.98
2019-02-18T08:52:17.031Z,101063.27
2019-02-18T08:54:56.019Z,101062.28
2019-02-18T08:57:17.753Z,101065.33
2019-02-18T08:59:46.995Z,101067.66
2019-02-18T09:02:17.646Z,101066.36
2019-02-18T09:04:46.900Z,101063.52
2019-02-18T09:07:16.152Z,101065.95
2019-02-18T09:09:45.847Z,101060.73
2019-02-18T09:12:15.079Z,101065.50
2019-02-18T09:14:44.635Z,101070.05
2019-02-18T09:17:14.449Z,101064.67
2019-02-18T09:19:44.268Z,101068.59
2019-02-18T09:22:31.225Z,101069.91
2019-02-18T09:25:15.790Z,101076.86
2019-02-18T09:27:45.080Z,101066.15
2019-02-18T09:30:18.061Z,101067.08
2019-02-18T09:32:47.296Z,101057.73
2019-02-18T09:35:16.576Z,101059.61
2019-02-18T09:37:47.038Z,101050.19
2019-02-18T09:40:16.585Z,101050.25
2019-02-18T09:42:46.360Z,101049.14
2019-02-18T09:45:16.022Z,101053.55
2019-02-18T09:47:45.342Z,101047.86
2019-02-18T09:50:14.868Z,101041.19
2019-02-18T09:52:44.111Z,101045.66
2019-02-18T09:55:13.387Z,101042.86
2019-02-18T09:57:42.946Z,101041.79
2019-02-18T10:00:12.249Z,101045.76
2019-02-18T10:02:41.629Z,101048.02
2019-02-18T10:05:11.222Z,101038.99
2019-02-18T10:07:40.459Z,101036.14
2019-02-18T10:10:10.147Z,101040.15
2019-02-18T10:12:39.700Z,101039.65
2019-02-18T10:15:09.038Z,101035.94
2019-02-18T10:17:38.295Z,101037.69
2019-02-18T10:20:08.741Z,101034.26
2019-02-18T10:22:37.974Z,101034.70
2019-02-18T10:25:08.313Z,101034.75
2019-02-18T10:27:39.111Z,101025.81
2019-02-18T10:30:08.651Z,101019.25
2019-02-18T10:32:38.025Z,101025.09
2019-02-18T10:35:09.101Z,101021.78
2019-02-18T10:37:38.372Z,101011.30
2019-02-18T10:40:08.213Z,101017.08
2019-02-18T10:42:37.858Z,101011.02
2019-02-18T10:45:08.546Z,101006.45
2019-02-18T10:47:37.907Z,100994.81
2019-02-18T10:50:09.836Z,100993.71
2019-02-18T10:52:39.066Z,100989.06
2019-02-18T10:55:08.751Z,100980.69
2019-02-18T10:57:38.808Z,100986.31
2019-02-18T11:00:10.044Z,100977.95
2019-02-18T11:02:39.318Z,100967.27
2019-02-18T11:05:09.270Z,100959.62
2019-02-18T11:07:40.186Z,100966.91
2019-02-18T11:10:12.032Z,100964.28
2019-02-18T11:12:41.617Z,100960.97
2019-02-18T11:15:11.904Z,100953.44
2019-02-18T11:17:41.150Z,100948.03
2019-02-18T11:20:11.397Z,100940.44
2019-02-18T11:22:40.639Z,100940.41
2019-02-18T11:25:10.480Z,100933.16
2019-02-18T11:27:40.618Z,100932.95
2019-02-18T11:30:12.314Z,100919.58
2019-02-18T11:32:41.722Z,100917.93
2019-02-18T11:35:13.170Z,100915.33
2019-02-18T11:37:42.414Z,100918.59
2019-02-18T11:40:13.642Z,100913.38
2019-02-18T11:42:43.673Z,100907.64
2019-02-18T11:45:14.348Z,100898.80
2019-02-18T11:47:43.751Z,100895.04
2019-02-18T11:50:13.913Z,100892.44
2019-02-18T11:52:43.577Z,100889.70
2019-02-18T11:55:13.006Z,100872.36
2019-02-18T11:57:45.446Z,100873.97
2019-02-18T12:00:15.708Z,100875.81
2019-02-18T12:02:45.959Z,100867.73
2019-02-18T12:05:17.764Z,100861.64
2019-02-18T12:07:47.248Z,100854.77
2019-02-18T12:10:17.649Z,100853.41
2019-02-18T12:12:47.345Z,100849.34
2019-02-18T12:15:16.829Z,100854.72
2019-02-18T12:17:46.874Z,100850.86
2019-02-18T12:20:16.561Z,100845.86
2019-02-18T12:22:46.555Z,100846.63
2019-02-18T12:25:15.957Z,100848.19
2019-02-18T12:27:45.815Z,100841.63
2019-02-18T12:30:15.072Z,100838.06
2019-02-18T12:32:44.358Z,100835.02
2019-02-18T12:35:14.063Z,100833.64
2019-02-18T12:37:43.411Z,100827.80
2019-02-18T12:40:12.768Z,100823.14
2019-02-18T12:42:42.785Z,100819.22
2019-02-18T12:45:12.431Z,100816.54
2019-02-18T12:47:41.914Z,100817.89
2019-02-18T12:50:12.026Z,100812.55
2019-02-18T12:52:41.269Z,100811.34
2019-02-18T12:55:10.720Z,100803.94
2019-02-18T12:57:40.443Z,100804.25
2019-02-18T13:00:10.542Z,100796.72
2019-02-18T13:02:44.200Z,100795.52
2019-02-18T13:05:12.572Z,100790.13
2019-02-18T13:07:41.917Z,100784.40
2019-02-18T13:10:11.682Z,100787.44
2019-02-18T13:12:41.429Z,100785.86
2019-02-18T13:15:11.775Z,100784.38
2019-02-18T13:17:42.888Z,100776.50
2019-02-18T13:20:12.561Z,100773.31
2019-02-18T13:22:41.867Z,100773.16
2019-02-18T13:25:11.123Z,100767.44
2019-02-18T13:27:43.922Z,100768.14
2019-02-18T13:30:14.785Z,100765.28
2019-02-18T13:32:44.084Z,100760.73
2019-02-18T13:35:13.630Z,100759.52
2019-02-18T13:37:42.955Z,100751.12
2019-02-18T13:40:13.524Z,100756.67
2019-02-18T13:42:43.482Z,100748.31
2019-02-18T13:45:12.075Z,100748.75
2019-02-18T13:47:41.373Z,100750.84
2019-02-18T13:50:11.551Z,100745.74
2019-02-18T13:52:40.859Z,100746.25
2019-02-18T13:55:10.498Z,100741.04
2019-02-18T13:57:40.493Z,100742.37
2019-02-18T14:00:17.993Z,100742.03
2019-02-18T14:02:47.690Z,100733.42
2019-02-18T14:05:17.552Z,100744.44
2019-02-18T14:07:46.774Z,100736.97
2019-02-18T14:10:16.319Z,100745.32
2019-02-18T14:12:45.852Z,100742.50
2019-02-18T14:15:16.468Z,100746.84
2019-02-18T14:17:45.813Z,100738.31
2019-02-18T14:20:15.454Z,100741.05
2019-02-18T14:22:44.770Z,100744.23
2019-02-18T14:25:15.183Z,100742.52
2019-02-18T14:27:44.699Z,100742.05
2019-02-18T14:30:14.792Z,100743.08
2019-02-18T14:32:44.129Z,100745.75
2019-02-18T14:35:13.804Z,100745.08
2019-02-18T14:37:43.091Z,100743.98
2019-02-18T14:40:18.207Z,100745.45
2019-02-18T14:42:48.899Z,100738.80
2019-02-18T14:45:19.006Z,100745.05
2019-02-18T14:47:48.673Z,100745.35
2019-02-18T14:50:18.904Z,100745.94
2019-02-18T14:52:48.580Z,100744.59
2019-02-18T14:55:17.979Z,100737.10
2019-02-18T14:57:47.808Z,100740.17
2019-02-18T15:00:23.453Z,100732.77
2019-02-18T15:02:56.969Z,100732.05
2019-02-18T15:05:27.098Z,100732.18
2019-02-18T15:07:56.386Z,100721.28
2019-02-18T15:10:25.921Z,100723.20
2019-02-18T15:12:55.218Z,100721.77
2019-02-18T15:15:24.647Z,100715.60
2019-02-18T15:17:54.404Z,100716.20
2019-02-18T15:20:24.497Z,100711.02
2019-02-18T15:22:53.776Z,100715.43
2019-02-18T15:25:23.442Z,100706.80
2019-02-18T15:27:52.820Z,100700.91
2019-02-18T15:30:22.427Z,100698.55
2019-02-18T15:32:51.999Z,100696.84
2019-02-18T15:35:21.288Z,100691.05
2019-02-18T15:37:50.553Z,100691.52
2019-02-18T15:40:20.811Z,100690.20
2019-02-18T15:42:50.109Z,100690.58
2019-02-18T15:45:19.630Z,100687.66
2019-02-18T15:47:50.296Z,100686.94
2019-02-18T15:50:19.812Z,100688.42
2019-02-18T15:52:49.679Z,100682.39
2019-02-18T15:55:19.479Z,100678.41
2019-02-18T15:57:48.786Z,100679.11
2019-02-18T16:00:20.501Z,100671.75
2019-02-18T16:02:50.005Z,100662.70
2019-02-18T16:05:19.286Z,100657.36
2019-02-18T16:07:48.883Z,100658.33
2019-02-18T16:10:18.173Z,100660.39
2019-02-18T16:12:51.051Z,100653.99
2019-02-18T16:15:20.844Z,100656.98
2019-02-18T16:17:50.366Z,100655.66
2019-02-18T16:20:20.604Z,100654.63
2019-02-18T16:22:50.371Z,100650.34
2019-02-18T16:25:21.045Z,100652.36
2019-02-18T16:27:50.325Z,100656.39
2019-02-18T16:30:19.833Z,100659.59
2019-02-18T16:32:49.081Z,100656.99
2019-02-18T16:35:18.688Z,100655.35
2019-02-18T16:37:49.019Z,100656.97
2019-02-18T16:40:18.662Z,100660.06
2019-02-18T16:42:47.918Z,100660.71
2019-02-18T16:45:17.449Z,100663.07
2019-02-18T16:47:46.686Z,100663.98
2019-02-18T16:50:16.019Z,100661.03
2019-02-18T16:52:45.691Z,100656.61
2019-02-18T16:55:15.471Z,100652.80
2019-02-18T16:57:44.972Z,100654.44
2019-02-18T17:00:22.494Z,100650.24
2019-02-18T17:02:51.919Z,100648.11
2019-02-18T17:05:21.169Z,100645.50
2019-02-18T17:07:50.422Z,100642.84
2019-02-18T17:10:19.761Z,100647.08
2019-02-18T17:12:49.698Z,100642.09
2019-02-18T17:15:19.333Z,100647.03
2019-02-18T17:17:49.045Z,100652.16
2019-02-18T17:20:19.789Z,100652.27
2019-02-18T17:22:50.347Z,100653.79
2019-02-18T17:25:20.321Z,100662.03
2019-02-18T17:27:50.431Z,100661.13
2019-02-18T17:30:20.294Z,100666.88
2019-02-18T17:32:50.038Z,100668.15
2019-02-18T17:35:20.245Z,100665.50
2019-02-18T17:37:49.961Z,100670.05
2019-02-18T17:40:19.866Z,100666.77
2019-02-18T17:42:50.324Z,100668.86
2019-02-18T17:45:20.180Z,100668.80
2019-02-18T17:47:49.993Z,100666.06
2019-02-18T17:50:20.461Z,100662.31
2019-02-18T17:52:50.548Z,100664.51
2019-02-18T17:55:20.682Z,100661.80
2019-02-18T17:57:50.708Z,100665.02
2019-02-18T18:00:22.193Z,100669.62
2019-02-18T18:02:52.273Z,100675.75
2019-02-18T18:07:48.512Z,100661.89
2019-02-18T18:10:19.127Z,100665.86
2019-02-18T18:12:48.856Z,100672.40
2019-02-18T18:15:19.911Z,100658.38
2019-02-18T18:17:52.291Z,100666.19
2019-02-18T18:20:24.166Z,100663.66
2019-02-18T18:22:55.604Z,100664.52
2019-02-18T18:25:26.721Z,100667.72
2019-02-18T18:27:56.975Z,100668.19
2019-02-18T18:30:26.755Z,100668.40
2019-02-18T18:32:58.005Z,100669.44
2019-02-18T18:35:27.700Z,100671.32
2019-02-18T18:37:57.871Z,100675.67
2019-02-18T18:40:27.978Z,100676.02
2019-02-18T18:42:57.882Z,100677.66
2019-02-18T18:45:27.605Z,100688.03
2019-02-18T18:47:58.497Z,100681.61
2019-02-18T18:50:28.797Z,100684.91
2019-02-18T18:52:59.090Z,100679.14
2019-02-18T18:55:29.937Z,100683.03
2019-02-18T18:57:59.916Z,100688.59
2019-02-18T19:00:29.738Z,100690.01
2019-02-18T19:02:59.910Z,100690.18
2019-02-18T19:05:29.729Z,100688.84
2019-02-18T19:07:59.674Z,100693.11
2019-02-18T19:10:29.820Z,100690.73
2019-02-18T19:12:59.538Z,100699.33
2019-02-18T19:15:29.507Z,100695.08
2019-02-18T19:18:01.032Z,100695.63
2019-02-18T19:20:30.746Z,100695.24
2019-02-18T19:23:00.500Z,100694.59
2019-02-18T19:25:30.644Z,100694.30
2019-02-18T19:28:01.229Z,100692.91
2019-02-18T19:30:33.367Z,100690.58
2019-02-18T19:33:03.803Z,100701.39
2019-02-18T19:35:35.895Z,100691.86
2019-02-18T19:38:09.145Z,100691.11
2019-02-18T19:40:39.303Z,100697.60
2019-02-18T19:43:09.285Z,100695.48
2019-02-18T19:45:39.191Z,100697.73
2019-02-18T19:48:09.264Z,100695.64
2019-02-18T19:50:40.085Z,100703.55
2019-02-18T19:53:10.178Z,100700.63
2019-02-18T19:55:40.306Z,100701.73
2019-02-18T19:58:10.039Z,100705.03
2019-02-18T20:00:39.898Z,100706.66
2019-02-18T20:03:10.038Z,100707.98
2019-02-18T20:05:40.563Z,100710.97
2019-02-18T20:08:10.494Z,100703.16
2019-02-18T20:10:41.605Z,100712.83
2019-02-18T20:13:11.468Z,100710.45
2019-02-18T20:15:41.471Z,100719.36
2019-02-18T20:18:11.610Z,100713.23
2019-02-18T20:20:41.357Z,100709.63
2019-02-18T20:23:11.367Z,100710.64
2019-02-18T20:25:43.957Z,100708.56
2019-02-18T20:28:13.644Z,100712.49
2019-02-18T20:30:44.407Z,100709.92
2019-02-18T20:33:15.086Z,100708.45
2019-02-18T20:35:45.129Z,100713.08
2019-02-18T20:38:14.896Z,100712.83
2019-02-18T20:40:50.136Z,100721.66
2019-02-18T20:43:20.264Z,100715.10
2019-02-18T20:45:50.103Z,100721.25
2019-02-18T20:48:20.034Z,100723.88
2019-02-18T20:50:50.072Z,100728.80
2019-02-18T20:53:21.253Z,100725.16
2019-02-18T20:55:51.274Z,100726.50
2019-02-18T20:58:22.114Z,100722.56
2019-02-18T21:00:52.210Z,100720.16
2019-02-18T21:03:22.146Z,100725.56
2019-02-18T21:05:51.904Z,100722.89
2019-02-18T21:08:21.677Z,100727.53
2019-02-18T21:10:51.568Z,100721.73
2019-02-18T21:13:24.139Z,100724.14
2019-02-18T21:15:54.090Z,100721.45
2019-02-18T21:18:23.881Z,100723.91
2019-02-18T21:20:53.719Z,100726.77
2019-02-18T21:23:23.565Z,100724.77
2019-02-18T21:25:53.517Z,100730.58
2019-02-18T21:28:23.233Z,100725.31
2019-02-18T21:30:53.135Z,100728.95
2019-02-18T21:33:23.953Z,100731.58
2019-02-18T21:35:53.691Z,100739.18
2019-02-18T21:38:23.190Z,100737.23
2019-02-18T21:40:53.118Z,100739.00
2019-02-18T21:43:22.563Z,100739.08
2019-02-18T21:45:52.067Z,100737.07
2019-02-18T21:48:21.878Z,100738.75
2019-02-18T21:50:51.336Z,100732.70
2019-02-18T21:53:21.039Z,100737.91
2019-02-18T21:55:50.724Z,100737.41
2019-02-18T21:58:20.009Z,100736.50
2019-02-18T22:00:49.558Z,100742.73
2019-02-18T22:03:19.134Z,100739.48
2019-02-18T22:05:48.902Z,100746.45
2019-02-18T22:08:18.519Z,100742.27
2019-02-18T22:10:48.130Z,100745.11
2019-02-18T22:13:17.770Z,100742.19
2019-02-18T22:15:47.280Z,100739.61
2019-02-18T22:18:16.906Z,100738.78
2019-02-18T22:20:46.206Z,100743.26
2019-02-18T22:23:15.505Z,100738.70
2019-02-18T22:25:45.098Z,100737.11
2019-02-18T22:28:14.432Z,100742.48
2019-02-18T22:30:43.696Z,100750.48
2019-02-18T22:33:13.380Z,100747.81
2019-02-18T22:35:45.841Z,100743.95
2019-02-18T22:38:15.154Z,100738.22
2019-02-18T22:40:44.578Z,100737.68
2019-02-18T22:43:13.974Z,100743.95
2019-02-18T22:45:43.579Z,100747.94
2019-02-18T22:48:12.874Z,100742.85
2019-02-18T22:50:42.159Z,100742.28
2019-02-18T22:53:11.602Z,100742.57
2019-02-18T22:55:40.895Z,100749.14
2019-02-18T22:58:10.652Z,100751.92
2019-02-18T23:01:02.771Z,100750.24
2019-02-18T23:03:33.496Z,100754.88
2019-02-18T23:06:04.645Z,100754.02
2019-02-18T23:08:33.909Z,100758.20
2019-02-18T23:11:04.050Z,100759.27
2019-02-18T23:13:33.732Z,100758.41
2019-02-18T23:16:04.391Z,100760.08
2019-02-18T23:18:34.478Z,100757.73
2019-02-18T23:21:03.781Z,100758.14
2019-02-18T23:23:33.396Z,100759.52
2019-02-18T23:26:04.922Z,100761.82
2019-02-18T23:28:34.223Z,100765.42
2019-02-18T23:31:04.042Z,100768.25
2019-02-18T23:33:33.955Z,100764.84
2019-02-18T23:36:04.049Z,100765.09
2019-02-18T23:38:36.632Z,100764.59
2019-02-18T23:41:06.042Z,100766.68
2019-02-18T23:43:35.661Z,100769.71
2019-02-18T23:46:06.103Z,100767.89
2019-02-18T23:48:35.369Z,100761.59
2019-02-18T23:51:04.897Z,100771.10
2019-02-18T23:53:34.131Z,100768.27
2019-02-18T23:56:04.423Z,100766.17
2019-02-18T23:58:33.976Z,100768.02
